sensor_id;sensor_type;location;lat;lon;timestamp;temperature;humidity
3418;DHT22;68007;51.312;12.372;2023-07-29T00:01:00;24.00;88.60
3418;DHT22;68007;51.312;12.372;2023-07-29T00:03:28;24.00;88.70
3418;DHT22;68007;51.312;12.372;2023-07-29T00:05:56;24.10;88.70
3418;DHT22;68007;51.312;12.372;2023-07-29T00:08:23;24.00;89.00
3418;DHT22;68007;51.312;12.372;2023-07-29T00:10:51;24.00;89.60
3418;DHT22;68007;51.312;12.372;2023-07-29T00:13:18;24.00;89.10
3418;DHT22;68007;51.312;12.372;2023-07-29T00:15:47;24.00;89.10
3418;DHT22;68007;51.312;12.372;2023-07-29T00:18:15;23.90;89.00
3418;DHT22;68007;51.312;12.372;2023-07-29T00:20:42;23.90;88.70
3418;DHT22;68007;51.312;12.372;2023-07-29T00:23:09;23.90;88.90
3418;DHT22;68007;51.312;12.372;2023-07-29T00:25:37;23.90;89.00
3418;DHT22;68007;51.312;12.372;2023-07-29T00:28:04;23.90;88.90
3418;DHT22;68007;51.312;12.372;2023-07-29T00:30:32;23.90;89.00
3418;DHT22;68007;51.312;12.372;2023-07-29T00:33:01;23.90;89.10
3418;DHT22;68007;51.312;12.372;2023-07-29T00:35:28;23.80;88.90
3418;DHT22;68007;51.312;12.372;2023-07-29T00:37:56;23.80;89.10
3418;DHT22;68007;51.312;12.372;2023-07-29T00:40:23;23.80;89.00
3418;DHT22;68007;51.312;12.372;2023-07-29T00:42:51;23.70;89.20
3418;DHT22;68007;51.312;12.372;2023-07-29T00:45:18;23.60;89.40
3418;DHT22;68007;51.312;12.372;2023-07-29T00:47:47;23.50;90.00
3418;DHT22;68007;51.312;12.372;2023-07-29T00:50:16;23.50;90.00
3418;DHT22;68007;51.312;12.372;2023-07-29T00:52:43;23.40;90.20
3418;DHT22;68007;51.312;12.372;2023-07-29T00:55:11;23.20;90.60
3418;DHT22;68007;51.312;12.372;2023-07-29T00:57:39;23.10;91.00
3418;DHT22;68007;51.312;12.372;2023-07-29T01:00:08;22.90;91.30
3418;DHT22;68007;51.312;12.372;2023-07-29T01:02:36;22.80;91.60
3418;DHT22;68007;51.312;12.372;2023-07-29T01:05:05;22.70;91.80
3418;DHT22;68007;51.312;12.372;2023-07-29T01:07:39;22.70;91.80
3418;DHT22;68007;51.312;12.372;2023-07-29T01:10:17;22.80;91.70
3418;DHT22;68007;51.312;12.372;2023-07-29T01:12:51;22.80;91.70
3418;DHT22;68007;51.312;12.372;2023-07-29T01:15:25;22.80;91.60
3418;DHT22;68007;51.312;12.372;2023-07-29T01:17:56;22.90;91.60
3418;DHT22;68007;51.312;12.372;2023-07-29T01:20:26;22.90;91.40
3418;DHT22;68007;51.312;12.372;2023-07-29T01:22:56;23.00;91.30
3418;DHT22;68007;51.312;12.372;2023-07-29T01:25:25;23.10;91.20
3418;DHT22;68007;51.312;12.372;2023-07-29T01:27:53;23.00;91.20
3418;DHT22;68007;51.312;12.372;2023-07-29T01:30:25;23.10;91.20
3418;DHT22;68007;51.312;12.372;2023-07-29T01:32:59;23.10;91.10
3418;DHT22;68007;51.312;12.372;2023-07-29T01:35:32;23.10;91.10
3418;DHT22;68007;51.312;12.372;2023-07-29T01:38:04;23.10;91.10
3418;DHT22;68007;51.312;12.372;2023-07-29T01:40:34;23.20;91.10
3418;DHT22;68007;51.312;12.372;2023-07-29T01:43:02;23.20;91.30
3418;DHT22;68007;51.312;12.372;2023-07-29T01:45:29;23.10;91.50
3418;DHT22;68007;51.312;12.372;2023-07-29T01:48:01;23.00;91.50
3418;DHT22;68007;51.312;12.372;2023-07-29T01:50:29;23.00;91.60
3418;DHT22;68007;51.312;12.372;2023-07-29T01:52:58;22.90;91.90
3418;DHT22;68007;51.312;12.372;2023-07-29T01:55:26;22.90;91.90
3418;DHT22;68007;51.312;12.372;2023-07-29T01:57:55;22.90;91.80
3418;DHT22;68007;51.312;12.372;2023-07-29T02:00:22;22.90;91.80
3418;DHT22;68007;51.312;12.372;2023-07-29T02:02:50;22.90;91.80
3418;DHT22;68007;51.312;12.372;2023-07-29T02:05:17;22.90;92.00
3418;DHT22;68007;51.312;12.372;2023-07-29T02:07:45;22.90;91.90
3418;DHT22;68007;51.312;12.372;2023-07-29T02:10:12;23.00;91.90
3418;DHT22;68007;51.312;12.372;2023-07-29T02:12:40;23.00;91.90
3418;DHT22;68007;51.312;12.372;2023-07-29T02:15:09;23.00;91.90
3418;DHT22;68007;51.312;12.372;2023-07-29T02:17:37;23.00;91.90
3418;DHT22;68007;51.312;12.372;2023-07-29T02:20:05;22.90;91.90
3418;DHT22;68007;51.312;12.372;2023-07-29T02:22:33;23.00;91.80
3418;DHT22;68007;51.312;12.372;2023-07-29T02:25:01;23.00;91.70
3418;DHT22;68007;51.312;12.372;2023-07-29T02:27:28;23.10;91.70
3418;DHT22;68007;51.312;12.372;2023-07-29T02:29:56;23.10;91.90
3418;DHT22;68007;51.312;12.372;2023-07-29T02:32:25;23.10;91.70
3418;DHT22;68007;51.312;12.372;2023-07-29T02:34:52;23.00;91.70
3418;DHT22;68007;51.312;12.372;2023-07-29T02:37:20;23.00;91.90
3418;DHT22;68007;51.312;12.372;2023-07-29T02:39:47;23.00;91.70
3418;DHT22;68007;51.312;12.372;2023-07-29T02:42:15;23.10;91.70
3418;DHT22;68007;51.312;12.372;2023-07-29T02:44:42;23.00;91.70
3418;DHT22;68007;51.312;12.372;2023-07-29T02:47:10;23.10;91.70
3418;DHT22;68007;51.312;12.372;2023-07-29T02:49:39;23.10;91.70
3418;DHT22;68007;51.312;12.372;2023-07-29T02:52:06;23.10;91.60
3418;DHT22;68007;51.312;12.372;2023-07-29T02:54:34;23.10;91.70
3418;DHT22;68007;51.312;12.372;2023-07-29T02:57:01;23.10;91.70
3418;DHT22;68007;51.312;12.372;2023-07-29T02:59:29;23.00;91.80
3418;DHT22;68007;51.312;12.372;2023-07-29T03:01:56;23.00;91.80
3418;DHT22;68007;51.312;12.372;2023-07-29T03:04:24;22.90;91.90
3418;DHT22;68007;51.312;12.372;2023-07-29T03:06:53;22.90;91.90
3418;DHT22;68007;51.312;12.372;2023-07-29T03:09:20;22.90;92.10
3418;DHT22;68007;51.312;12.372;2023-07-29T03:11:48;22.80;92.00
3418;DHT22;68007;51.312;12.372;2023-07-29T03:14:15;22.80;92.00
3418;DHT22;68007;51.312;12.372;2023-07-29T03:16:44;22.90;91.90
3418;DHT22;68007;51.312;12.372;2023-07-29T03:19:12;22.90;92.00
3418;DHT22;68007;51.312;12.372;2023-07-29T03:21:39;22.80;92.00
3418;DHT22;68007;51.312;12.372;2023-07-29T03:24:08;22.80;92.40
3418;DHT22;68007;51.312;12.372;2023-07-29T03:26:36;22.90;91.90
3418;DHT22;68007;51.312;12.372;2023-07-29T03:29:03;22.90;91.90
3418;DHT22;68007;51.312;12.372;2023-07-29T03:31:31;22.90;91.90
3418;DHT22;68007;51.312;12.372;2023-07-29T03:33:58;22.90;92.20
3418;DHT22;68007;51.312;12.372;2023-07-29T03:36:26;22.80;92.00
3418;DHT22;68007;51.312;12.372;2023-07-29T03:38:53;22.70;92.00
3418;DHT22;68007;51.312;12.372;2023-07-29T03:41:22;22.80;92.10
3418;DHT22;68007;51.312;12.372;2023-07-29T03:43:50;22.80;92.10
3418;DHT22;68007;51.312;12.372;2023-07-29T03:46:17;22.80;92.10
3418;DHT22;68007;51.312;12.372;2023-07-29T03:48:47;22.80;92.30
3418;DHT22;68007;51.312;12.372;2023-07-29T03:51:15;22.70;92.20
3418;DHT22;68007;51.312;12.372;2023-07-29T03:53:42;22.70;92.50
3418;DHT22;68007;51.312;12.372;2023-07-29T03:56:10;22.70;92.30
3418;DHT22;68007;51.312;12.372;2023-07-29T03:58:38;22.70;92.60
3418;DHT22;68007;51.312;12.372;2023-07-29T04:01:06;22.60;92.80
3418;DHT22;68007;51.312;12.372;2023-07-29T04:03:34;22.50;93.10
3418;DHT22;68007;51.312;12.372;2023-07-29T04:06:01;22.40;93.10
3418;DHT22;68007;51.312;12.372;2023-07-29T04:08:28;22.40;93.00
3418;DHT22;68007;51.312;12.372;2023-07-29T04:10:55;22.50;93.00
3418;DHT22;68007;51.312;12.372;2023-07-29T04:13:23;22.50;93.00
3418;DHT22;68007;51.312;12.372;2023-07-29T04:15:52;22.50;92.90
3418;DHT22;68007;51.312;12.372;2023-07-29T04:18:19;22.60;92.80
3418;DHT22;68007;51.312;12.372;2023-07-29T04:20:47;22.60;92.70
3418;DHT22;68007;51.312;12.372;2023-07-29T04:23:14;22.60;92.50
3418;DHT22;68007;51.312;12.372;2023-07-29T04:25:42;22.60;92.50
3418;DHT22;68007;51.312;12.372;2023-07-29T04:28:09;22.60;92.60
3418;DHT22;68007;51.312;12.372;2023-07-29T04:30:37;22.70;93.00
3418;DHT22;68007;51.312;12.372;2023-07-29T04:33:05;22.60;92.70
3418;DHT22;68007;51.312;12.372;2023-07-29T04:35:33;22.60;92.60
3418;DHT22;68007;51.312;12.372;2023-07-29T04:38:00;22.50;92.80
3418;DHT22;68007;51.312;12.372;2023-07-29T04:40:28;22.50;93.10
3418;DHT22;68007;51.312;12.372;2023-07-29T04:42:55;22.40;93.30
3418;DHT22;68007;51.312;12.372;2023-07-29T04:45:23;22.40;93.30
3418;DHT22;68007;51.312;12.372;2023-07-29T04:47:54;22.40;93.60
3418;DHT22;68007;51.312;12.372;2023-07-29T04:50:23;22.40;93.30
3418;DHT22;68007;51.312;12.372;2023-07-29T04:52:51;22.40;93.30
3418;DHT22;68007;51.312;12.372;2023-07-29T04:55:19;22.40;93.40
3418;DHT22;68007;51.312;12.372;2023-07-29T04:57:47;22.30;93.50
3418;DHT22;68007;51.312;12.372;2023-07-29T05:00:14;22.30;93.60
3418;DHT22;68007;51.312;12.372;2023-07-29T05:02:42;22.30;93.60
3418;DHT22;68007;51.312;12.372;2023-07-29T05:05:09;22.30;93.50
3418;DHT22;68007;51.312;12.372;2023-07-29T05:07:38;22.30;93.30
3418;DHT22;68007;51.312;12.372;2023-07-29T05:10:07;22.30;93.50
3418;DHT22;68007;51.312;12.372;2023-07-29T05:12:34;22.20;93.60
3418;DHT22;68007;51.312;12.372;2023-07-29T05:15:02;22.30;93.60
3418;DHT22;68007;51.312;12.372;2023-07-29T05:17:29;22.20;93.70
3418;DHT22;68007;51.312;12.372;2023-07-29T05:19:57;22.20;93.50
3418;DHT22;68007;51.312;12.372;2023-07-29T05:22:24;22.30;93.60
3418;DHT22;68007;51.312;12.372;2023-07-29T05:24:53;22.20;93.70
3418;DHT22;68007;51.312;12.372;2023-07-29T05:27:21;22.20;93.90
3418;DHT22;68007;51.312;12.372;2023-07-29T05:29:48;22.10;94.00
3418;DHT22;68007;51.312;12.372;2023-07-29T05:32:16;22.10;94.10
3418;DHT22;68007;51.312;12.372;2023-07-29T05:34:43;22.10;94.20
3418;DHT22;68007;51.312;12.372;2023-07-29T05:37:11;22.00;94.30
3418;DHT22;68007;51.312;12.372;2023-07-29T05:39:38;21.90;94.50
3418;DHT22;68007;51.312;12.372;2023-07-29T05:42:07;21.90;94.50
3418;DHT22;68007;51.312;12.372;2023-07-29T05:44:35;21.90;94.50
3418;DHT22;68007;51.312;12.372;2023-07-29T05:47:02;22.00;94.50
3418;DHT22;68007;51.312;12.372;2023-07-29T05:49:30;21.90;94.60
3418;DHT22;68007;51.312;12.372;2023-07-29T05:51:57;21.90;94.60
3418;DHT22;68007;51.312;12.372;2023-07-29T05:54:25;21.90;94.50
3418;DHT22;68007;51.312;12.372;2023-07-29T05:56:52;21.90;94.80
3418;DHT22;68007;51.312;12.372;2023-07-29T05:59:21;21.90;94.80
3418;DHT22;68007;51.312;12.372;2023-07-29T06:01:48;22.00;94.80
3418;DHT22;68007;51.312;12.372;2023-07-29T06:04:16;22.00;94.90
3418;DHT22;68007;51.312;12.372;2023-07-29T06:06:43;21.90;95.00
3418;DHT22;68007;51.312;12.372;2023-07-29T06:09:11;21.90;95.00
3418;DHT22;68007;51.312;12.372;2023-07-29T06:11:38;21.90;95.00
3418;DHT22;68007;51.312;12.372;2023-07-29T06:14:06;21.90;95.10
3418;DHT22;68007;51.312;12.372;2023-07-29T06:16:35;21.90;95.00
3418;DHT22;68007;51.312;12.372;2023-07-29T06:19:02;21.90;95.10
3418;DHT22;68007;51.312;12.372;2023-07-29T06:21:30;21.90;95.20
3418;DHT22;68007;51.312;12.372;2023-07-29T06:23:57;21.80;95.00
3418;DHT22;68007;51.312;12.372;2023-07-29T06:26:25;21.90;94.90
3418;DHT22;68007;51.312;12.372;2023-07-29T06:28:52;22.00;94.90
3418;DHT22;68007;51.312;12.372;2023-07-29T06:31:20;22.00;95.00
3418;DHT22;68007;51.312;12.372;2023-07-29T06:33:49;22.00;95.00
3418;DHT22;68007;51.312;12.372;2023-07-29T06:36:16;22.00;94.90
3418;DHT22;68007;51.312;12.372;2023-07-29T06:38:44;22.10;94.90
3418;DHT22;68007;51.312;12.372;2023-07-29T06:41:11;22.00;95.00
3418;DHT22;68007;51.312;12.372;2023-07-29T06:43:39;22.00;95.00
3418;DHT22;68007;51.312;12.372;2023-07-29T06:46:06;22.00;95.10
3418;DHT22;68007;51.312;12.372;2023-07-29T06:48:34;22.00;95.10
3418;DHT22;68007;51.312;12.372;2023-07-29T06:51:03;22.10;95.10
3418;DHT22;68007;51.312;12.372;2023-07-29T06:53:30;22.10;95.00
3418;DHT22;68007;51.312;12.372;2023-07-29T06:55:58;22.10;94.80
3418;DHT22;68007;51.312;12.372;2023-07-29T06:58:26;22.20;94.50
3418;DHT22;68007;51.312;12.372;2023-07-29T07:00:53;22.20;94.60
3418;DHT22;68007;51.312;12.372;2023-07-29T07:03:20;22.20;94.60
3418;DHT22;68007;51.312;12.372;2023-07-29T07:05:48;22.20;94.50
3418;DHT22;68007;51.312;12.372;2023-07-29T07:08:17;22.20;94.50
3418;DHT22;68007;51.312;12.372;2023-07-29T07:10:46;22.30;94.40
3418;DHT22;68007;51.312;12.372;2023-07-29T07:13:14;22.30;94.40
3418;DHT22;68007;51.312;12.372;2023-07-29T07:15:41;22.40;94.40
3418;DHT22;68007;51.312;12.372;2023-07-29T07:18:09;22.40;94.20
3418;DHT22;68007;51.312;12.372;2023-07-29T07:20:36;22.50;94.10
3418;DHT22;68007;51.312;12.372;2023-07-29T07:23:04;22.50;94.30
3418;DHT22;68007;51.312;12.372;2023-07-29T07:25:36;22.60;93.90
3418;DHT22;68007;51.312;12.372;2023-07-29T07:28:04;22.70;93.90
3418;DHT22;68007;51.312;12.372;2023-07-29T07:30:31;22.70;93.70
3418;DHT22;68007;51.312;12.372;2023-07-29T07:32:59;22.70;93.60
3418;DHT22;68007;51.312;12.372;2023-07-29T07:35:26;22.70;93.60
3418;DHT22;68007;51.312;12.372;2023-07-29T07:37:53;22.70;93.30
3418;DHT22;68007;51.312;12.372;2023-07-29T07:40:21;22.70;93.40
3418;DHT22;68007;51.312;12.372;2023-07-29T07:42:50;22.70;93.30
3418;DHT22;68007;51.312;12.372;2023-07-29T07:45:17;22.80;93.20
3418;DHT22;68007;51.312;12.372;2023-07-29T07:47:45;22.80;93.20
3418;DHT22;68007;51.312;12.372;2023-07-29T07:50:12;22.80;93.10
3418;DHT22;68007;51.312;12.372;2023-07-29T07:52:40;22.80;92.90
3418;DHT22;68007;51.312;12.372;2023-07-29T07:55:08;22.90;92.70
3418;DHT22;68007;51.312;12.372;2023-07-29T07:57:36;22.90;92.80
3418;DHT22;68007;51.312;12.372;2023-07-29T08:00:06;22.80;92.70
3418;DHT22;68007;51.312;12.372;2023-07-29T08:02:33;22.80;92.80
3418;DHT22;68007;51.312;12.372;2023-07-29T08:05:01;22.90;92.80
3418;DHT22;68007;51.312;12.372;2023-07-29T08:07:28;23.00;92.90
3418;DHT22;68007;51.312;12.372;2023-07-29T08:09:56;23.00;92.80
3418;DHT22;68007;51.312;12.372;2023-07-29T08:12:23;23.00;92.70
3418;DHT22;68007;51.312;12.372;2023-07-29T08:14:51;23.00;92.60
3418;DHT22;68007;51.312;12.372;2023-07-29T08:17:20;23.10;92.70
3418;DHT22;68007;51.312;12.372;2023-07-29T08:19:47;23.10;92.60
3418;DHT22;68007;51.312;12.372;2023-07-29T08:22:14;23.10;92.60
3418;DHT22;68007;51.312;12.372;2023-07-29T08:24:43;23.10;92.60
3418;DHT22;68007;51.312;12.372;2023-07-29T08:27:10;23.20;92.60
3418;DHT22;68007;51.312;12.372;2023-07-29T08:29:38;23.30;92.50
3418;DHT22;68007;51.312;12.372;2023-07-29T08:32:06;23.30;92.30
3418;DHT22;68007;51.312;12.372;2023-07-29T08:34:35;23.30;92.30
3418;DHT22;68007;51.312;12.372;2023-07-29T08:37:03;23.30;92.10
3418;DHT22;68007;51.312;12.372;2023-07-29T08:39:30;23.20;92.10
3418;DHT22;68007;51.312;12.372;2023-07-29T08:42:01;23.20;92.10
3418;DHT22;68007;51.312;12.372;2023-07-29T08:44:36;23.30;92.20
3418;DHT22;68007;51.312;12.372;2023-07-29T08:47:07;23.30;92.20
3418;DHT22;68007;51.312;12.372;2023-07-29T08:49:36;23.30;92.20
3418;DHT22;68007;51.312;12.372;2023-07-29T08:52:05;23.30;92.00
3418;DHT22;68007;51.312;12.372;2023-07-29T08:54:34;23.30;92.20
3418;DHT22;68007;51.312;12.372;2023-07-29T08:57:02;23.30;92.20
3418;DHT22;68007;51.312;12.372;2023-07-29T08:59:29;23.30;92.20
3418;DHT22;68007;51.312;12.372;2023-07-29T09:01:57;23.40;92.40
3418;DHT22;68007;51.312;12.372;2023-07-29T09:04:25;23.40;92.30
3418;DHT22;68007;51.312;12.372;2023-07-29T09:06:56;23.50;92.10
3418;DHT22;68007;51.312;12.372;2023-07-29T09:09:25;23.50;92.00
3418;DHT22;68007;51.312;12.372;2023-07-29T09:11:53;23.60;92.00
3418;DHT22;68007;51.312;12.372;2023-07-29T09:14:21;23.60;91.80
3418;DHT22;68007;51.312;12.372;2023-07-29T09:16:48;23.70;91.90
3418;DHT22;68007;51.312;12.372;2023-07-29T09:19:16;23.70;91.80
3418;DHT22;68007;51.312;12.372;2023-07-29T09:21:46;23.80;91.90
3418;DHT22;68007;51.312;12.372;2023-07-29T09:24:17;23.80;91.80
3418;DHT22;68007;51.312;12.372;2023-07-29T09:26:49;23.90;91.60
3418;DHT22;68007;51.312;12.372;2023-07-29T09:29:21;23.90;91.70
3418;DHT22;68007;51.312;12.372;2023-07-29T09:31:49;23.90;91.80
3418;DHT22;68007;51.312;12.372;2023-07-29T09:34:17;23.90;91.70
3418;DHT22;68007;51.312;12.372;2023-07-29T09:36:44;23.90;91.50
3418;DHT22;68007;51.312;12.372;2023-07-29T09:39:12;23.90;91.60
3418;DHT22;68007;51.312;12.372;2023-07-29T09:41:41;23.80;91.60
3418;DHT22;68007;51.312;12.372;2023-07-29T09:44:14;23.70;91.70
3418;DHT22;68007;51.312;12.372;2023-07-29T09:46:46;23.70;91.80
3418;DHT22;68007;51.312;12.372;2023-07-29T09:49:14;23.80;91.90
3418;DHT22;68007;51.312;12.372;2023-07-29T09:51:41;23.80;91.90
3418;DHT22;68007;51.312;12.372;2023-07-29T09:54:09;23.70;92.00
3418;DHT22;68007;51.312;12.372;2023-07-29T09:56:41;23.80;92.10
3418;DHT22;68007;51.312;12.372;2023-07-29T09:59:09;23.80;92.10
3418;DHT22;68007;51.312;12.372;2023-07-29T10:01:37;23.80;92.10
3418;DHT22;68007;51.312;12.372;2023-07-29T10:04:05;23.80;92.20
3418;DHT22;68007;51.312;12.372;2023-07-29T10:06:34;23.90;92.10
3418;DHT22;68007;51.312;12.372;2023-07-29T10:09:01;23.90;92.10
3418;DHT22;68007;51.312;12.372;2023-07-29T10:11:30;23.90;92.10
3418;DHT22;68007;51.312;12.372;2023-07-29T10:14:00;24.00;92.10
3418;DHT22;68007;51.312;12.372;2023-07-29T10:16:29;24.00;92.00
3418;DHT22;68007;51.312;12.372;2023-07-29T10:18:57;24.00;91.90
3418;DHT22;68007;51.312;12.372;2023-07-29T10:21:24;24.00;91.90
3418;DHT22;68007;51.312;12.372;2023-07-29T10:23:53;24.00;92.00
3418;DHT22;68007;51.312;12.372;2023-07-29T10:26:24;24.10;91.90
3418;DHT22;68007;51.312;12.372;2023-07-29T10:28:55;24.10;91.90
3418;DHT22;68007;51.312;12.372;2023-07-29T10:31:28;24.20;91.90
3418;DHT22;68007;51.312;12.372;2023-07-29T10:33:56;24.10;92.90
3418;DHT22;68007;51.312;12.372;2023-07-29T10:36:24;24.20;93.50
3418;DHT22;68007;51.312;12.372;2023-07-29T10:38:52;24.20;93.60
3418;DHT22;68007;51.312;12.372;2023-07-29T10:41:20;24.20;93.80
3418;DHT22;68007;51.312;12.372;2023-07-29T10:43:47;24.20;93.80
3418;DHT22;68007;51.312;12.372;2023-07-29T10:46:16;24.20;93.80
3418;DHT22;68007;51.312;12.372;2023-07-29T10:48:53;24.20;94.00
3418;DHT22;68007;51.312;12.372;2023-07-29T10:51:28;24.20;94.20
3418;DHT22;68007;51.312;12.372;2023-07-29T10:54:01;24.20;94.00
3418;DHT22;68007;51.312;12.372;2023-07-29T10:56:31;24.20;93.70
3418;DHT22;68007;51.312;12.372;2023-07-29T10:59:02;24.20;93.50
3418;DHT22;68007;51.312;12.372;2023-07-29T11:01:39;24.20;93.40
3418;DHT22;68007;51.312;12.372;2023-07-29T11:04:26;24.20;93.20
3418;DHT22;68007;51.312;12.372;2023-07-29T11:07:22;24.20;92.90
3418;DHT22;68007;51.312;12.372;2023-07-29T11:10:00;24.20;92.80
3418;DHT22;68007;51.312;12.372;2023-07-29T11:12:38;24.20;92.90
3418;DHT22;68007;51.312;12.372;2023-07-29T11:15:14;24.30;92.60
3418;DHT22;68007;51.312;12.372;2023-07-29T11:17:43;24.30;92.20
3418;DHT22;68007;51.312;12.372;2023-07-29T11:20:13;24.20;92.00
3418;DHT22;68007;51.312;12.372;2023-07-29T11:22:41;24.20;92.00
3418;DHT22;68007;51.312;12.372;2023-07-29T11:25:10;24.30;92.20
3418;DHT22;68007;51.312;12.372;2023-07-29T11:27:38;24.30;92.00
3418;DHT22;68007;51.312;12.372;2023-07-29T11:30:07;24.30;91.80
3418;DHT22;68007;51.312;12.372;2023-07-29T11:32:36;24.40;91.50
3418;DHT22;68007;51.312;12.372;2023-07-29T11:35:05;24.30;91.20
3418;DHT22;68007;51.312;12.372;2023-07-29T11:37:35;24.40;90.70
3418;DHT22;68007;51.312;12.372;2023-07-29T11:40:03;24.30;90.50
3418;DHT22;68007;51.312;12.372;2023-07-29T11:42:32;24.30;90.60
3418;DHT22;68007;51.312;12.372;2023-07-29T11:45:00;24.40;90.60
3418;DHT22;68007;51.312;12.372;2023-07-29T11:47:29;24.30;89.80
3418;DHT22;68007;51.312;12.372;2023-07-29T11:49:58;24.30;90.00
3418;DHT22;68007;51.312;12.372;2023-07-29T11:52:27;24.30;90.10
3418;DHT22;68007;51.312;12.372;2023-07-29T11:54:57;24.40;89.30
3418;DHT22;68007;51.312;12.372;2023-07-29T11:57:25;24.40;88.90
3418;DHT22;68007;51.312;12.372;2023-07-29T11:59:53;24.40;89.00
3418;DHT22;68007;51.312;12.372;2023-07-29T12:02:21;24.40;89.10
3418;DHT22;68007;51.312;12.372;2023-07-29T12:04:50;24.40;89.20
3418;DHT22;68007;51.312;12.372;2023-07-29T12:07:18;24.40;88.00
3418;DHT22;68007;51.312;12.372;2023-07-29T12:09:46;24.40;88.00
3418;DHT22;68007;51.312;12.372;2023-07-29T12:12:15;24.40;87.80
3418;DHT22;68007;51.312;12.372;2023-07-29T12:14:44;24.40;88.60
3418;DHT22;68007;51.312;12.372;2023-07-29T12:17:13;24.50;88.70
3418;DHT22;68007;51.312;12.372;2023-07-29T12:19:41;24.50;88.90
3418;DHT22;68007;51.312;12.372;2023-07-29T12:22:10;24.50;88.50
3418;DHT22;68007;51.312;12.372;2023-07-29T12:24:39;24.50;88.60
3418;DHT22;68007;51.312;12.372;2023-07-29T12:27:11;24.50;89.10
3418;DHT22;68007;51.312;12.372;2023-07-29T12:29:43;24.50;89.60
3418;DHT22;68007;51.312;12.372;2023-07-29T12:32:12;24.50;89.90
3418;DHT22;68007;51.312;12.372;2023-07-29T12:34:40;24.50;90.00
3418;DHT22;68007;51.312;12.372;2023-07-29T12:37:07;24.60;90.00
3418;DHT22;68007;51.312;12.372;2023-07-29T12:39:40;24.60;90.20
3418;DHT22;68007;51.312;12.372;2023-07-29T12:42:07;24.70;89.60
3418;DHT22;68007;51.312;12.372;2023-07-29T12:44:35;24.70;89.70
3418;DHT22;68007;51.312;12.372;2023-07-29T12:47:05;24.70;89.80
3418;DHT22;68007;51.312;12.372;2023-07-29T12:49:34;24.80;89.50
3418;DHT22;68007;51.312;12.372;2023-07-29T12:52:02;24.80;90.10
3418;DHT22;68007;51.312;12.372;2023-07-29T12:54:30;24.80;89.30
3418;DHT22;68007;51.312;12.372;2023-07-29T12:56:57;24.90;89.50
3418;DHT22;68007;51.312;12.372;2023-07-29T12:59:25;25.00;89.90
3418;DHT22;68007;51.312;12.372;2023-07-29T13:01:52;25.00;87.70
3418;DHT22;68007;51.312;12.372;2023-07-29T13:04:21;25.10;86.70
3418;DHT22;68007;51.312;12.372;2023-07-29T13:06:48;25.10;84.50
3418;DHT22;68007;51.312;12.372;2023-07-29T13:09:16;25.10;84.30
3418;DHT22;68007;51.312;12.372;2023-07-29T13:11:43;25.20;85.00
3418;DHT22;68007;51.312;12.372;2023-07-29T13:14:11;25.20;85.90
3418;DHT22;68007;51.312;12.372;2023-07-29T13:16:38;25.30;85.00
3418;DHT22;68007;51.312;12.372;2023-07-29T13:19:06;25.30;83.30
3418;DHT22;68007;51.312;12.372;2023-07-29T13:21:35;25.30;83.40
3418;DHT22;68007;51.312;12.372;2023-07-29T13:24:02;25.40;82.20
3418;DHT22;68007;51.312;12.372;2023-07-29T13:26:30;25.40;81.70
3418;DHT22;68007;51.312;12.372;2023-07-29T13:28:57;25.40;81.30
3418;DHT22;68007;51.312;12.372;2023-07-29T13:31:25;25.40;81.80
3418;DHT22;68007;51.312;12.372;2023-07-29T13:33:52;25.40;82.10
3418;DHT22;68007;51.312;12.372;2023-07-29T13:36:20;25.40;82.20
3418;DHT22;68007;51.312;12.372;2023-07-29T13:38:49;25.40;81.80
3418;DHT22;68007;51.312;12.372;2023-07-29T13:41:16;25.40;81.30
3418;DHT22;68007;51.312;12.372;2023-07-29T13:43:44;25.40;81.20
3418;DHT22;68007;51.312;12.372;2023-07-29T13:46:11;25.50;81.90
3418;DHT22;68007;51.312;12.372;2023-07-29T13:48:39;25.50;81.20
3418;DHT22;68007;51.312;12.372;2023-07-29T13:51:06;25.60;81.80
3418;DHT22;68007;51.312;12.372;2023-07-29T13:53:34;25.70;81.40
3418;DHT22;68007;51.312;12.372;2023-07-29T13:56:03;25.70;81.30
3418;DHT22;68007;51.312;12.372;2023-07-29T13:58:31;25.80;81.40
3418;DHT22;68007;51.312;12.372;2023-07-29T14:00:58;25.90;80.60
3418;DHT22;68007;51.312;12.372;2023-07-29T14:03:26;26.00;80.90
3418;DHT22;68007;51.312;12.372;2023-07-29T14:05:53;26.10;77.00
3418;DHT22;68007;51.312;12.372;2023-07-29T14:08:21;26.10;76.80
3418;DHT22;68007;51.312;12.372;2023-07-29T14:10:49;26.10;76.20
3418;DHT22;68007;51.312;12.372;2023-07-29T14:13:18;26.10;76.60
3418;DHT22;68007;51.312;12.372;2023-07-29T14:15:45;26.10;76.00
3418;DHT22;68007;51.312;12.372;2023-07-29T14:18:13;26.20;75.50
3418;DHT22;68007;51.312;12.372;2023-07-29T14:20:40;26.10;75.80
3418;DHT22;68007;51.312;12.372;2023-07-29T14:23:08;26.10;76.50
3418;DHT22;68007;51.312;12.372;2023-07-29T14:25:35;26.10;76.20
3418;DHT22;68007;51.312;12.372;2023-07-29T14:28:03;26.20;76.00
3418;DHT22;68007;51.312;12.372;2023-07-29T14:30:32;26.20;75.90
3418;DHT22;68007;51.312;12.372;2023-07-29T14:32:59;26.20;75.90
3418;DHT22;68007;51.312;12.372;2023-07-29T14:35:27;26.20;76.60
3418;DHT22;68007;51.312;12.372;2023-07-29T14:37:54;26.10;74.80
3418;DHT22;68007;51.312;12.372;2023-07-29T14:40:22;26.10;75.40
3418;DHT22;68007;51.312;12.372;2023-07-29T14:42:49;26.10;75.40
3418;DHT22;68007;51.312;12.372;2023-07-29T14:45:17;26.10;75.20
3418;DHT22;68007;51.312;12.372;2023-07-29T14:47:46;26.10;75.10
3418;DHT22;68007;51.312;12.372;2023-07-29T14:50:13;26.00;75.50
3418;DHT22;68007;51.312;12.372;2023-07-29T14:52:41;26.00;75.70
3418;DHT22;68007;51.312;12.372;2023-07-29T14:55:08;25.90;76.40
3418;DHT22;68007;51.312;12.372;2023-07-29T14:57:36;25.80;76.30
3418;DHT22;68007;51.312;12.372;2023-07-29T15:00:04;25.60;77.30
3418;DHT22;68007;51.312;12.372;2023-07-29T15:02:32;25.40;78.20
3418;DHT22;68007;51.312;12.372;2023-07-29T15:05:01;25.30;79.70
3418;DHT22;68007;51.312;12.372;2023-07-29T15:07:28;24.90;81.60
3418;DHT22;68007;51.312;12.372;2023-07-29T15:09:56;24.60;83.30
3418;DHT22;68007;51.312;12.372;2023-07-29T15:12:24;24.40;84.60
3418;DHT22;68007;51.312;12.372;2023-07-29T15:14:51;24.30;85.50
3418;DHT22;68007;51.312;12.372;2023-07-29T15:17:19;24.20;86.30
3418;DHT22;68007;51.312;12.372;2023-07-29T15:19:46;24.10;87.50
3418;DHT22;68007;51.312;12.372;2023-07-29T15:22:17;24.00;87.90
3418;DHT22;68007;51.312;12.372;2023-07-29T15:24:44;23.90;87.90
3418;DHT22;68007;51.312;12.372;2023-07-29T15:27:12;23.80;88.50
3418;DHT22;68007;51.312;12.372;2023-07-29T15:29:40;23.80;89.10
3418;DHT22;68007;51.312;12.372;2023-07-29T15:32:08;23.70;89.40
3418;DHT22;68007;51.312;12.372;2023-07-29T15:34:35;23.70;90.10
3418;DHT22;68007;51.312;12.372;2023-07-29T15:37:03;23.50;90.10